createdAt,value
2022-10-12T00:01:11.543Z,16.90
2022-10-12T00:03:39.966Z,16.80
2022-10-12T00:06:14.605Z,17.30
2022-10-12T00:08:45.521Z,16.50
2022-10-12T00:11:18.707Z,16.40
2022-10-12T00:13:46.895Z,15.90
2022-10-12T00:16:16.920Z,17.50
2022-10-12T00:18:45.291Z,16.50
2022-10-12T00:21:16.182Z,17.60
2022-10-12T00:23:45.228Z,16.60
2022-10-12T00:26:21.632Z,17.60
2022-10-12T00:28:56.301Z,16.90
2022-10-12T00:31:25.217Z,15.00
2022-10-12T00:33:53.749Z,15.10
2022-10-12T00:36:21.991Z,15.90
2022-10-12T00:38:52.004Z,15.80
2022-10-12T00:41:24.520Z,15.00
2022-10-12T00:43:57.880Z,14.70
2022-10-12T00:46:42.781Z,15.50
2022-10-12T00:49:14.648Z,15.00
2022-10-12T00:51:46.498Z,15.00
2022-10-12T00:54:21.449Z,14.60
2022-10-12T00:56:53.772Z,15.00
2022-10-12T00:59:29.030Z,15.10
2022-10-12T01:04:26.438Z,15.80
2022-10-12T01:06:54.417Z,15.90
2022-10-12T01:09:22.348Z,15.60
2022-10-12T01:11:50.255Z,13.60
2022-10-12T01:14:18.817Z,14.60
2022-10-12T01:16:55.071Z,14.10
2022-10-12T01:20:10.352Z,14.10
2022-10-12T01:23:04.405Z,14.50
2022-10-12T01:25:51.734Z,14.40
2022-10-12T01:28:47.170Z,13.90
2022-10-12T01:31:35.990Z,14.70
2022-10-12T01:34:11.566Z,15.90
2022-10-12T01:36:44.902Z,14.90
2022-10-12T01:39:20.523Z,14.50
2022-10-12T01:41:54.362Z,14.40
2022-10-12T01:44:24.238Z,14.10
2022-10-12T01:46:56.196Z,14.00
2022-10-12T01:49:29.408Z,14.40
2022-10-12T01:52:29.800Z,14.00
2022-10-12T01:55:18.492Z,14.70
2022-10-12T01:58:22.604Z,14.90
2022-10-12T02:01:25.037Z,14.70
2022-10-12T02:04:11.346Z,14.30
2022-10-12T02:06:49.963Z,14.50
2022-10-12T02:09:20.655Z,13.30
2022-10-12T02:11:53.573Z,13.50
2022-10-12T02:14:27.598Z,14.20
2022-10-12T02:17:00.276Z,13.80
2022-10-12T02:19:33.107Z,14.10
2022-10-12T02:22:04.324Z,14.90
2022-10-12T02:24:35.613Z,14.90
2022-10-12T02:27:05.178Z,14.80
2022-10-12T02:29:38.819Z,15.70
2022-10-12T02:32:35.721Z,14.20
2022-10-12T02:35:17.742Z,14.40
2022-10-12T02:37:57.975Z,13.60
2022-10-12T02:40:37.958Z,13.40
2022-10-12T02:43:29.977Z,14.10
2022-10-12T02:46:00.818Z,12.80
2022-10-12T02:48:29.991Z,13.50
2022-10-12T02:50:59.355Z,13.20
2022-10-12T02:53:30.579Z,15.50
2022-10-12T02:56:08.153Z,15.10
2022-10-12T02:58:36.688Z,14.40
2022-10-12T03:01:05.339Z,13.10
2022-10-12T03:03:33.414Z,13.80
2022-10-12T03:06:01.380Z,14.00
2022-10-12T03:08:29.510Z,14.00
2022-10-12T03:11:05.877Z,18.60
2022-10-12T03:13:34.073Z,17.70
2022-10-12T03:16:07.641Z,20.80
2022-10-12T03:18:36.238Z,23.80
2022-10-12T03:21:04.602Z,24.10
2022-10-12T03:23:34.664Z,27.70
2022-10-12T03:26:03.698Z,29.00
2022-10-12T03:28:32.836Z,31.50
2022-10-12T03:31:02.027Z,31.90
2022-10-12T03:33:30.111Z,30.70
2022-10-12T03:35:58.352Z,29.10
2022-10-12T03:38:26.303Z,29.10
2022-10-12T03:40:57.292Z,27.90
2022-10-12T03:43:25.352Z,28.50
2022-10-12T03:45:54.322Z,28.10
2022-10-12T03:48:22.485Z,28.20
2022-10-12T03:50:52.882Z,28.10
2022-10-12T03:53:21.125Z,27.20
2022-10-12T03:55:51.096Z,24.90
2022-10-12T03:58:19.051Z,25.10
2022-10-12T04:00:47.116Z,24.10
2022-10-12T04:03:15.240Z,24.70
2022-10-12T04:05:43.729Z,24.90
2022-10-12T04:08:11.619Z,24.70
2022-10-12T04:10:39.715Z,26.00
2022-10-12T04:13:07.871Z,27.00
2022-10-12T04:15:35.863Z,26.30
2022-10-12T04:18:04.820Z,24.80
2022-10-12T04:20:34.126Z,24.20
2022-10-12T04:23:02.034Z,24.30
2022-10-12T04:25:33.432Z,24.80
2022-10-12T04:28:01.512Z,24.50
2022-10-12T04:30:29.565Z,27.20
2022-10-12T04:32:57.829Z,25.70
2022-10-12T04:35:27.890Z,27.30
2022-10-12T04:37:57.631Z,25.80
2022-10-12T04:40:25.883Z,24.40
2022-10-12T04:42:56.057Z,24.80
2022-10-12T04:45:26.136Z,24.50
2022-10-12T04:47:54.010Z,23.40
2022-10-12T04:50:26.208Z,24.20
2022-10-12T04:52:57.167Z,24.00
2022-10-12T04:55:26.000Z,24.90
2022-10-12T04:57:54.197Z,26.30
2022-10-12T05:00:22.710Z,27.20
2022-10-12T05:02:51.011Z,27.30
2022-10-12T05:05:20.068Z,28.00
2022-10-12T05:07:49.080Z,29.00
2022-10-12T05:10:18.294Z,26.30
2022-10-12T05:12:46.739Z,28.60
2022-10-12T05:15:14.763Z,30.20
2022-10-12T05:17:42.792Z,31.50
2022-10-12T05:20:11.568Z,30.90
2022-10-12T05:22:47.420Z,28.80
2022-10-12T05:25:18.615Z,28.90
2022-10-12T05:27:46.875Z,29.40
2022-10-12T05:30:15.147Z,28.00
2022-10-12T05:32:44.766Z,29.70
2022-10-12T05:35:12.673Z,31.90
2022-10-12T05:37:40.815Z,30.30
2022-10-12T05:40:10.031Z,30.40
2022-10-12T05:42:38.490Z,30.40
2022-10-12T05:45:07.779Z,28.80
2022-10-12T05:47:36.902Z,30.80
2022-10-12T05:50:06.728Z,29.00
2022-10-12T05:52:36.545Z,31.30
2022-10-12T05:55:05.692Z,32.30
2022-10-12T05:57:39.024Z,33.20
2022-10-12T06:02:42.216Z,34.30
2022-10-12T06:05:12.099Z,31.10
2022-10-12T06:07:44.262Z,32.00
2022-10-12T06:10:13.071Z,30.50
2022-10-12T06:12:43.720Z,30.40
2022-10-12T06:15:12.898Z,31.10
2022-10-12T06:17:43.997Z,38.40
2022-10-12T06:20:13.817Z,33.50
2022-10-12T06:22:42.448Z,34.50
2022-10-12T06:25:10.537Z,33.90
2022-10-12T06:27:38.535Z,32.60
2022-10-12T06:30:09.425Z,33.10
2022-10-12T06:32:39.582Z,31.70
2022-10-12T06:35:11.967Z,34.90
2022-10-12T06:37:51.535Z,35.20
2022-10-12T06:40:21.561Z,35.40
2022-10-12T06:42:54.866Z,35.60
2022-10-12T06:45:37.119Z,35.50
2022-10-12T06:48:06.668Z,35.10
2022-10-12T06:50:37.270Z,34.20
2022-10-12T06:53:08.982Z,33.90
2022-10-12T06:55:40.201Z,32.30
2022-10-12T06:58:15.414Z,32.10
2022-10-12T07:01:08.394Z,29.90
2022-10-12T07:03:48.098Z,27.10
2022-10-12T07:06:18.949Z,26.00
2022-10-12T07:09:22.493Z,25.90
2022-10-12T07:12:11.065Z,25.70
2022-10-12T07:14:41.396Z,27.40
2022-10-12T07:17:10.904Z,29.00
2022-10-12T07:19:40.351Z,28.10
2022-10-12T07:22:10.992Z,28.00
2022-10-12T07:24:39.761Z,28.70
2022-10-12T07:27:11.276Z,28.50
2022-10-12T07:29:41.142Z,28.60
2022-10-12T07:32:09.598Z,28.20
2022-10-12T07:34:49.476Z,29.70
2022-10-12T07:37:23.708Z,31.70
2022-10-12T07:39:58.679Z,29.30
2022-10-12T07:42:27.141Z,27.70
2022-10-12T07:44:55.718Z,30.90
2022-10-12T07:47:27.327Z,28.20
2022-10-12T07:50:02.650Z,27.00
2022-10-12T07:52:59.582Z,28.20
2022-10-12T07:55:36.218Z,41.60
2022-10-12T07:58:12.985Z,38.80
2022-10-12T08:00:49.740Z,31.60
2022-10-12T08:03:21.318Z,28.40
2022-10-12T08:06:00.894Z,25.80
2022-10-12T08:08:30.838Z,27.80
2022-10-12T08:11:14.392Z,26.40
2022-10-12T08:14:10.681Z,28.00
2022-10-12T08:16:45.439Z,31.50
2022-10-12T08:19:25.473Z,32.90
2022-10-12T08:22:17.771Z,28.90
2022-10-12T08:24:51.771Z,28.30
2022-10-12T08:27:29.584Z,29.20
2022-10-12T08:32:46.160Z,28.80
2022-10-12T08:35:15.013Z,28.40
2022-10-12T08:37:43.813Z,29.40
2022-10-12T08:40:53.119Z,28.10
2022-10-12T08:43:48.606Z,27.40
2022-10-12T08:46:22.251Z,28.30
2022-10-12T08:49:24.719Z,32.20
2022-10-12T08:51:57.782Z,27.90
2022-10-12T08:54:48.456Z,29.00
2022-10-12T08:57:21.457Z,35.50
2022-10-12T08:59:55.411Z,25.90
2022-10-12T09:03:00.734Z,25.20
2022-10-12T09:05:50.353Z,25.70
2022-10-12T09:08:27.435Z,27.40
2022-10-12T09:11:22.384Z,25.90
2022-10-12T09:14:07.833Z,24.70
2022-10-12T09:16:43.062Z,26.00
2022-10-12T09:19:25.582Z,24.60
2022-10-12T09:21:59.475Z,27.40
2022-10-12T09:24:46.420Z,27.20
2022-10-12T09:31:23.175Z,25.20
2022-10-12T09:33:59.247Z,25.20
2022-10-12T09:36:36.665Z,26.30
2022-10-12T09:39:14.322Z,26.60
2022-10-12T09:42:31.591Z,27.90
2022-10-12T09:45:19.490Z,26.50
2022-10-12T09:51:59.509Z,29.00
2022-10-12T09:54:38.982Z,31.50
2022-10-12T09:57:20.038Z,32.20
2022-10-12T10:03:41.928Z,27.40
2022-10-12T10:04:23.741Z,26.80
2022-10-12T10:06:47.227Z,27.10
2022-10-12T10:09:36.622Z,27.80
2022-10-12T10:12:40.704Z,27.60
2022-10-12T10:15:53.427Z,27.60
2022-10-12T10:19:12.480Z,27.00
2022-10-12T10:22:13.790Z,26.80
2022-10-12T10:24:45.051Z,26.10
2022-10-12T10:27:38.115Z,26.50
2022-10-12T10:30:33.973Z,26.30
2022-10-12T10:33:19.918Z,26.50
2022-10-12T10:36:22.241Z,28.20
2022-10-12T10:39:11.423Z,29.10
2022-10-12T10:41:45.412Z,29.00
2022-10-12T10:44:47.378Z,27.50
2022-10-12T10:47:20.714Z,26.50
2022-10-12T10:49:56.043Z,28.50
2022-10-12T10:52:40.010Z,26.90
2022-10-12T10:55:14.091Z,27.20
2022-10-12T10:58:11.907Z,33.10
2022-10-12T11:01:02.520Z,29.10
2022-10-12T11:03:54.034Z,28.80
2022-10-12T11:06:47.767Z,26.80
2022-10-12T11:09:24.780Z,27.30
2022-10-12T11:12:04.839Z,31.80
2022-10-12T11:14:49.375Z,28.40
2022-10-12T11:17:22.255Z,26.40
2022-10-12T11:20:00.583Z,26.80
2022-10-12T11:22:40.691Z,26.30
2022-10-12T11:25:39.898Z,31.30
2022-10-12T11:28:11.392Z,28.10
2022-10-12T11:30:44.380Z,26.40
2022-10-12T11:33:23.141Z,25.40
2022-10-12T11:35:55.234Z,24.60
2022-10-12T11:38:25.058Z,26.80
2022-10-12T11:41:18.948Z,24.80
2022-10-12T11:44:20.754Z,24.70
2022-10-12T11:47:04.495Z,30.90
2022-10-12T11:50:02.665Z,24.60
2022-10-12T11:52:47.145Z,25.60
2022-10-12T11:55:56.187Z,25.70
2022-10-12T11:58:48.934Z,26.60
2022-10-12T12:01:22.798Z,26.10
2022-10-12T12:04:36.359Z,26.90
2022-10-12T12:07:29.868Z,23.80
2022-10-12T12:10:00.776Z,24.30
2022-10-12T12:12:30.164Z,22.60
2022-10-12T12:15:07.797Z,22.80
2022-10-12T12:17:36.338Z,23.00
2022-10-12T12:20:44.001Z,23.60
2022-10-12T12:23:43.664Z,24.40
2022-10-12T12:26:16.914Z,23.70
2022-10-12T12:28:53.063Z,24.10
2022-10-12T12:31:23.605Z,21.40
2022-10-12T12:34:17.826Z,22.00
2022-10-12T12:36:50.083Z,21.90
2022-10-12T12:39:33.617Z,25.00
2022-10-12T12:42:08.766Z,27.50
2022-10-12T12:44:38.596Z,22.90
2022-10-12T12:47:40.313Z,21.20
2022-10-12T12:50:35.667Z,24.00
2022-10-12T12:53:18.232Z,21.10
2022-10-12T12:55:59.270Z,22.30
2022-10-12T12:58:44.691Z,23.80
2022-10-12T13:01:48.558Z,24.00
2022-10-12T13:04:40.244Z,20.30
2022-10-12T13:07:28.001Z,20.70
2022-10-12T13:10:22.886Z,20.40
2022-10-12T13:13:21.347Z,19.90
2022-10-12T13:16:36.565Z,21.10
2022-10-12T13:19:10.098Z,22.90
2022-10-12T13:21:47.572Z,26.90
2022-10-12T13:24:22.543Z,25.60
2022-10-12T13:27:05.329Z,22.20
2022-10-12T13:29:47.451Z,22.00
2022-10-12T13:33:17.446Z,20.90
2022-10-12T13:35:56.510Z,20.70
2022-10-12T13:38:32.186Z,22.10
2022-10-12T13:41:26.256Z,43.80
2022-10-12T13:44:07.942Z,23.40
2022-10-12T13:46:46.144Z,24.70
2022-10-12T13:49:22.965Z,24.20
2022-10-12T13:52:22.939Z,23.60
2022-10-12T13:55:04.250Z,22.80
2022-10-12T13:57:50.517Z,24.00
2022-10-12T14:00:22.876Z,23.60
2022-10-12T14:03:03.638Z,24.40
2022-10-12T14:05:34.810Z,22.70
2022-10-12T14:08:19.727Z,23.80
2022-10-12T14:10:49.634Z,24.70
2022-10-12T14:13:33.919Z,23.40
2022-10-12T14:16:06.977Z,22.40
2022-10-12T14:18:46.320Z,22.00
2022-10-12T14:21:33.268Z,21.90
2022-10-12T14:24:19.074Z,26.10
2022-10-12T14:27:03.893Z,23.90
2022-10-12T14:29:33.428Z,23.10
2022-10-12T14:32:10.645Z,23.80
2022-10-12T14:34:49.658Z,24.10
2022-10-12T14:37:19.016Z,26.60
2022-10-12T14:39:50.432Z,22.80
2022-10-12T14:42:24.985Z,23.40
2022-10-12T14:44:56.679Z,22.50
2022-10-12T14:47:41.871Z,23.30
2022-10-12T14:50:18.406Z,23.90
2022-10-12T14:52:54.989Z,26.80
2022-10-12T14:55:30.505Z,26.70
2022-10-12T14:58:00.857Z,24.40
2022-10-12T15:00:34.990Z,23.00
2022-10-12T15:03:05.146Z,23.20
2022-10-12T15:05:34.839Z,23.10
2022-10-12T15:08:09.576Z,22.40
2022-10-12T15:10:37.976Z,21.70
2022-10-12T15:13:06.321Z,20.70
2022-10-12T15:15:44.968Z,20.50
2022-10-12T15:18:14.635Z,20.20
2022-10-12T15:20:46.889Z,18.40
2022-10-12T15:23:21.046Z,20.50
2022-10-12T15:25:56.846Z,19.10
2022-10-12T15:28:29.888Z,17.20
2022-10-12T15:33:47.828Z,14.90
2022-10-12T15:36:15.841Z,14.70
2022-10-12T15:38:44.076Z,15.80
2022-10-12T15:41:18.954Z,15.80
2022-10-12T15:43:47.690Z,14.80
2022-10-12T15:46:27.691Z,16.00
2022-10-12T15:49:06.114Z,17.20
2022-10-12T15:51:46.543Z,18.60
2022-10-12T15:54:15.186Z,17.40
2022-10-12T15:56:43.479Z,19.30
2022-10-12T15:59:15.154Z,18.40
2022-10-12T16:01:43.559Z,17.40
2022-10-12T16:04:15.438Z,15.40
2022-10-12T16:06:46.669Z,15.70
2022-10-12T16:09:17.815Z,17.10
2022-10-12T16:11:50.144Z,17.00
2022-10-12T16:14:18.428Z,17.50
2022-10-12T16:16:46.524Z,16.50
2022-10-12T16:19:14.782Z,17.10
2022-10-12T16:21:43.025Z,18.00
2022-10-12T16:24:11.303Z,18.30
2022-10-12T16:26:44.753Z,18.70
2022-10-12T16:29:13.627Z,20.80
2022-10-12T16:34:13.411Z,20.80
2022-10-12T16:36:41.711Z,19.30
2022-10-12T16:39:11.465Z,24.10
2022-10-12T16:41:39.520Z,24.00
2022-10-12T16:44:08.283Z,25.70
2022-10-12T16:46:39.556Z,23.50
2022-10-12T16:49:09.224Z,22.30
2022-10-12T16:51:39.806Z,22.40
2022-10-12T16:54:08.184Z,22.20
2022-10-12T16:56:39.366Z,22.10
2022-10-12T16:59:08.165Z,20.60
2022-10-12T17:01:39.263Z,22.90
2022-10-12T17:04:15.870Z,21.50
2022-10-12T17:06:47.044Z,21.40
2022-10-12T17:09:18.230Z,21.80
2022-10-12T17:11:46.544Z,23.10
2022-10-12T17:14:16.948Z,22.90
2022-10-12T17:16:48.233Z,21.40
2022-10-12T17:19:41.011Z,21.90
2022-10-12T17:22:11.098Z,21.50
2022-10-12T17:24:42.625Z,21.40
2022-10-12T17:27:13.451Z,22.70
2022-10-12T17:29:42.421Z,21.50
2022-10-12T17:32:12.544Z,21.70
2022-10-12T17:34:45.171Z,21.50
2022-10-12T17:37:16.009Z,21.20
2022-10-12T17:39:48.014Z,20.60
2022-10-12T17:42:16.883Z,19.50
2022-10-12T17:44:45.702Z,19.60
2022-10-12T17:47:17.114Z,21.90
2022-10-12T17:49:45.468Z,20.20
2022-10-12T17:52:14.160Z,19.80
2022-10-12T17:54:42.802Z,19.80
2022-10-12T17:57:10.951Z,20.50
2022-10-12T17:59:39.175Z,22.10
2022-10-12T18:02:09.653Z,19.80
2022-10-12T18:04:38.169Z,19.10
2022-10-12T18:07:06.856Z,18.60
2022-10-12T18:09:35.109Z,18.00
2022-10-12T18:12:04.366Z,18.30
2022-10-12T18:14:33.772Z,17.70
2022-10-12T18:17:02.872Z,18.10
2022-10-12T18:19:32.612Z,17.80
2022-10-12T18:22:00.896Z,18.10
2022-10-12T18:24:29.104Z,16.70
2022-10-12T18:26:57.154Z,16.80
2022-10-12T18:29:28.260Z,16.90
2022-10-12T18:31:59.771Z,16.50
2022-10-12T18:34:33.019Z,18.00
2022-10-12T18:37:07.067Z,17.10
2022-10-12T18:39:35.673Z,16.70
2022-10-12T18:42:03.787Z,16.50
2022-10-12T18:44:31.846Z,16.10
2022-10-12T18:46:59.908Z,16.10
2022-10-12T18:49:28.342Z,16.30
2022-10-12T18:51:56.478Z,16.70
2022-10-12T18:54:25.785Z,16.90
2022-10-12T18:56:54.037Z,16.70
2022-10-12T18:59:23.421Z,17.60
2022-10-12T19:01:51.894Z,18.90
2022-10-12T19:04:23.797Z,18.50
2022-10-12T19:06:56.960Z,19.50
2022-10-12T19:09:25.843Z,18.90
2022-10-12T19:11:54.221Z,21.50
2022-10-12T19:14:22.938Z,20.30
2022-10-12T19:16:51.640Z,19.00
2022-10-12T19:19:22.924Z,19.70
2022-10-12T19:21:52.444Z,19.50
2022-10-12T19:24:21.768Z,21.00
2022-10-12T19:26:50.153Z,19.50
2022-10-12T19:29:18.325Z,19.50
2022-10-12T19:31:49.531Z,19.40
2022-10-12T19:34:19.737Z,19.60
2022-10-12T19:36:48.840Z,18.80
2022-10-12T19:39:22.582Z,20.00
2022-10-12T19:44:20.867Z,19.40
2022-10-12T19:46:49.688Z,19.80
2022-10-12T19:49:18.936Z,18.60
2022-10-12T19:51:47.892Z,18.10
2022-10-12T19:54:16.647Z,18.70
2022-10-12T19:56:45.149Z,18.60
2022-10-12T19:59:14.044Z,19.10
2022-10-12T20:01:47.946Z,19.30
2022-10-12T20:04:17.013Z,19.70
2022-10-12T20:06:45.555Z,19.70
2022-10-12T20:09:13.737Z,18.60
2022-10-12T20:11:42.476Z,18.40
2022-10-12T20:14:10.647Z,17.40
2022-10-12T20:16:38.689Z,18.30
2022-10-12T20:19:08.356Z,21.40
2022-10-12T20:21:39.185Z,18.10
2022-10-12T20:24:10.107Z,17.40
2022-10-12T20:26:38.269Z,17.80
2022-10-12T20:29:06.684Z,17.60
2022-10-12T20:31:34.910Z,18.60
2022-10-12T20:34:02.930Z,18.00
2022-10-12T20:36:31.716Z,19.10
2022-10-12T20:39:00.030Z,19.10
2022-10-12T20:41:29.619Z,19.60
2022-10-12T20:43:59.726Z,19.00
2022-10-12T20:46:29.958Z,18.40
2022-10-12T20:49:00.796Z,17.70
2022-10-12T20:51:31.921Z,16.80
2022-10-12T20:54:01.544Z,16.90
2022-10-12T20:56:32.448Z,18.90
2022-10-12T20:59:02.121Z,17.60
2022-10-12T21:01:30.140Z,16.90
2022-10-12T21:03:58.464Z,15.70
2022-10-12T21:06:28.791Z,16.30
2022-10-12T21:08:58.362Z,16.60
2022-10-12T21:11:28.222Z,16.40
2022-10-12T21:13:58.482Z,16.70
2022-10-12T21:16:27.350Z,16.30
2022-10-12T21:18:56.213Z,16.80
2022-10-12T21:21:25.733Z,15.80
2022-10-12T21:23:56.842Z,16.70
2022-10-12T21:26:29.440Z,18.10
2022-10-12T21:28:59.674Z,18.60
2022-10-12T21:31:32.279Z,18.20
2022-10-12T21:34:02.879Z,18.70
2022-10-12T21:36:32.512Z,18.50
2022-10-12T21:39:09.001Z,18.20
2022-10-12T21:41:36.919Z,19.10
2022-10-12T21:44:06.172Z,19.60
2022-10-12T21:46:35.464Z,19.00
2022-10-12T21:49:08.075Z,19.50
2022-10-12T21:51:37.328Z,19.30
2022-10-12T21:54:06.748Z,18.60
2022-10-12T21:56:36.701Z,17.90
2022-10-12T21:59:05.785Z,18.50
2022-10-12T22:01:36.990Z,18.40
2022-10-12T22:04:08.294Z,18.00
2022-10-12T22:06:36.309Z,19.40
2022-10-12T22:09:08.522Z,18.70
2022-10-12T22:11:37.377Z,17.90
2022-10-12T22:14:11.468Z,18.40
2022-10-12T22:16:40.451Z,18.00
2022-10-12T22:19:09.286Z,17.20
2022-10-12T22:21:37.497Z,17.80
2022-10-12T22:24:06.175Z,17.50
2022-10-12T22:26:35.289Z,18.80
2022-10-12T22:29:07.437Z,16.30
2022-10-12T22:31:37.509Z,16.00
2022-10-12T22:34:05.558Z,16.90
2022-10-12T22:36:34.414Z,16.80
2022-10-12T22:39:04.747Z,17.80
2022-10-12T22:41:32.909Z,18.30
2022-10-12T22:44:00.799Z,17.20
2022-10-12T22:46:28.962Z,16.80
2022-10-12T22:48:57.138Z,16.80
2022-10-12T22:51:34.668Z,16.80
2022-10-12T22:54:03.554Z,16.70
2022-10-12T22:56:31.953Z,16.60
2022-10-12T22:59:03.949Z,16.80
2022-10-12T23:01:32.208Z,17.60
2022-10-12T23:04:00.304Z,18.20
2022-10-12T23:06:28.309Z,17.20
2022-10-12T23:08:56.565Z,15.70
2022-10-12T23:11:27.456Z,17.00
2022-10-12T23:13:57.338Z,16.60
2022-10-12T23:16:28.376Z,16.30
2022-10-12T23:19:02.239Z,16.40
2022-10-12T23:21:31.843Z,16.20
2022-10-12T23:24:00.844Z,16.10
2022-10-12T23:26:29.384Z,15.00
2022-10-12T23:28:57.376Z,15.70
2022-10-12T23:31:28.416Z,16.10
2022-10-12T23:34:02.523Z,15.50
2022-10-12T23:36:31.727Z,17.20
2022-10-12T23:39:01.384Z,15.90
2022-10-12T23:41:29.336Z,15.70
2022-10-12T23:43:57.381Z,15.40
2022-10-12T23:46:26.422Z,15.80
2022-10-12T23:48:56.437Z,15.40
2022-10-12T23:51:24.483Z,15.70
2022-10-12T23:53:52.382Z,15.90
2022-10-12T23:56:22.946Z,15.80
2022-10-12T23:58:51.114Z,15.60
